createdAt,value
2019-06-26T00:01:06.280Z,69.20
2019-06-26T00:03:33.739Z,69.09
2019-06-26T00:06:01.471Z,69.51
2019-06-26T00:08:28.744Z,70.34
2019-06-26T00:10:56.389Z,70.15
2019-06-26T00:13:27.010Z,70.81
2019-06-26T00:15:54.817Z,71.00
2019-06-26T00:18:22.478Z,71.24
2019-06-26T00:20:49.619Z,71.09
2019-06-26T00:23:16.878Z,71.61
2019-06-26T00:25:44.226Z,71.09
2019-06-26T00:28:11.627Z,70.65
2019-06-26T00:30:40.863Z,70.29
2019-06-26T00:33:08.068Z,70.51
2019-06-26T00:35:35.155Z,70.75
2019-06-26T00:38:02.811Z,71.15
2019-06-26T00:40:30.736Z,71.38
2019-06-26T00:42:58.303Z,71.73
2019-06-26T00:45:25.517Z,71.75
2019-06-26T00:47:52.724Z,71.18
2019-06-26T00:50:20.261Z,70.96
2019-06-26T00:52:48.170Z,71.16
2019-06-26T00:55:15.510Z,71.58
2019-06-26T00:57:42.921Z,71.45
2019-06-26T01:00:11.299Z,71.54
2019-06-26T01:02:38.449Z,71.90
2019-06-26T01:05:08.399Z,71.89
2019-06-26T01:07:36.061Z,72.02
2019-06-26T01:10:07.588Z,72.37
2019-06-26T01:12:34.971Z,72.19
2019-06-26T01:17:30.969Z,72.54
2019-06-26T01:19:58.187Z,71.93
2019-06-26T01:22:25.344Z,72.04
2019-06-26T01:24:52.942Z,71.63
2019-06-26T01:27:20.179Z,72.23
2019-06-26T01:29:47.915Z,73.21
2019-06-26T01:32:16.628Z,73.58
2019-06-26T01:34:43.765Z,72.75
2019-06-26T01:37:11.400Z,72.17
2019-06-26T01:39:39.002Z,73.27
2019-06-26T01:42:06.252Z,73.26
2019-06-26T01:44:33.503Z,73.34
2019-06-26T01:47:00.861Z,73.14
2019-06-26T01:49:28.072Z,73.47
2019-06-26T01:51:55.661Z,72.89
2019-06-26T01:54:23.365Z,73.07
2019-06-26T01:56:50.589Z,73.47
2019-06-26T01:59:17.834Z,73.20
2019-06-26T02:01:50.247Z,73.45
2019-06-26T02:04:17.433Z,73.54
2019-06-26T02:06:44.564Z,73.30
2019-06-26T02:09:11.746Z,73.78
2019-06-26T02:11:39.013Z,73.74
2019-06-26T02:14:06.426Z,73.73
2019-06-26T02:16:33.760Z,73.57
2019-06-26T02:19:05.990Z,74.83
2019-06-26T02:21:33.206Z,74.43
2019-06-26T02:24:00.779Z,73.99
2019-06-26T02:26:28.396Z,73.56
2019-06-26T02:28:56.066Z,73.87
2019-06-26T02:31:23.697Z,73.52
2019-06-26T02:33:50.980Z,73.47
2019-06-26T02:36:18.336Z,74.25
2019-06-26T02:38:45.545Z,74.16
2019-06-26T02:41:13.074Z,74.55
2019-06-26T02:43:40.251Z,74.31
2019-06-26T02:46:07.781Z,73.79
2019-06-26T02:48:35.475Z,74.23
2019-06-26T02:51:03.024Z,74.75
2019-06-26T02:53:30.188Z,74.83
2019-06-26T02:55:57.901Z,74.78
2019-06-26T02:58:25.209Z,75.52
2019-06-26T03:00:53.476Z,75.19
2019-06-26T03:03:20.650Z,75.09
2019-06-26T03:05:48.375Z,75.25
2019-06-26T03:08:15.885Z,75.60
2019-06-26T03:10:43.156Z,75.09
2019-06-26T03:13:10.451Z,75.13
2019-06-26T03:15:37.602Z,75.63
2019-06-26T03:18:04.909Z,75.45
2019-06-26T03:20:38.556Z,74.94
2019-06-26T03:23:05.689Z,74.73
2019-06-26T03:25:33.065Z,75.40
2019-06-26T03:28:00.482Z,75.99
2019-06-26T03:30:27.691Z,76.13
2019-06-26T03:32:55.316Z,75.66
2019-06-26T03:35:22.491Z,75.44
2019-06-26T03:37:49.727Z,75.28
2019-06-26T03:40:17.100Z,75.49
2019-06-26T03:42:44.611Z,75.82
2019-06-26T03:45:25.130Z,76.02
2019-06-26T03:47:41.229Z,75.88
2019-06-26T03:50:09.783Z,75.98
2019-06-26T03:52:36.925Z,75.69
2019-06-26T03:55:04.492Z,75.74
2019-06-26T03:57:35.161Z,76.05
2019-06-26T04:00:00.781Z,76.32
2019-06-26T04:02:28.135Z,76.63
2019-06-26T04:04:55.350Z,76.34
2019-06-26T04:07:22.584Z,75.96
2019-06-26T04:09:49.964Z,75.97
2019-06-26T04:12:17.088Z,76.38
2019-06-26T04:14:44.670Z,76.42
2019-06-26T04:17:12.018Z,77.07
2019-06-26T04:19:39.301Z,77.44
2019-06-26T04:22:06.916Z,77.23
2019-06-26T04:24:34.543Z,76.93
2019-06-26T04:27:01.933Z,76.89
2019-06-26T04:29:29.970Z,76.78
2019-06-26T04:31:57.155Z,76.59
2019-06-26T04:34:24.362Z,76.48
2019-06-26T04:36:51.935Z,76.49
2019-06-26T04:39:19.085Z,76.39
2019-06-26T04:41:46.548Z,76.20
2019-06-26T04:44:13.739Z,75.85
2019-06-26T04:46:41.175Z,75.67
2019-06-26T04:49:09.074Z,75.33
2019-06-26T04:51:36.236Z,75.05
2019-06-26T04:54:03.470Z,75.29
2019-06-26T04:56:31.211Z,75.11
2019-06-26T04:58:58.406Z,74.68
2019-06-26T05:01:25.541Z,74.80
2019-06-26T05:03:52.682Z,74.81
2019-06-26T05:06:19.946Z,74.53
2019-06-26T05:08:47.096Z,74.34
2019-06-26T05:11:14.227Z,74.45
2019-06-26T05:13:41.530Z,74.37
2019-06-26T05:16:15.048Z,74.56
2019-06-26T05:18:38.651Z,74.37
2019-06-26T05:21:06.004Z,74.22
2019-06-26T05:23:33.166Z,74.07
2019-06-26T05:26:00.306Z,74.04
2019-06-26T05:28:27.576Z,74.08
2019-06-26T05:30:55.154Z,74.02
2019-06-26T05:33:22.705Z,73.91
2019-06-26T05:35:50.217Z,73.89
2019-06-26T05:38:17.314Z,74.29
2019-06-26T05:40:44.436Z,74.07
2019-06-26T05:43:13.473Z,73.79
2019-06-26T05:45:41.011Z,73.59
2019-06-26T05:48:08.128Z,73.30
2019-06-26T05:50:35.345Z,73.16
2019-06-26T05:53:03.803Z,73.30
2019-06-26T05:55:31.243Z,73.15
2019-06-26T05:57:58.371Z,73.08
2019-06-26T06:00:25.627Z,72.98
2019-06-26T06:02:54.128Z,72.77
2019-06-26T06:05:22.099Z,72.42
2019-06-26T06:07:49.228Z,72.32
2019-06-26T06:10:17.158Z,71.97
2019-06-26T06:12:44.471Z,72.25
2019-06-26T06:15:13.564Z,71.90
2019-06-26T06:17:40.689Z,71.95
2019-06-26T06:20:09.151Z,71.73
2019-06-26T06:22:36.706Z,71.86
2019-06-26T06:25:06.269Z,72.03
2019-06-26T06:27:33.861Z,71.34
2019-06-26T06:30:01.774Z,71.15
2019-06-26T06:32:28.920Z,72.24
2019-06-26T06:34:56.353Z,70.94
2019-06-26T06:37:23.891Z,72.78
2019-06-26T06:39:51.373Z,72.92
2019-06-26T06:42:20.965Z,72.14
2019-06-26T06:44:48.296Z,69.59
2019-06-26T06:47:15.720Z,72.08
2019-06-26T06:49:42.892Z,71.20
2019-06-26T06:52:10.114Z,72.29
2019-06-26T06:54:37.615Z,72.72
2019-06-26T06:57:04.922Z,72.44
2019-06-26T06:59:32.201Z,70.62
2019-06-26T07:01:59.748Z,67.92
2019-06-26T07:04:27.235Z,66.25
2019-06-26T07:06:54.468Z,69.19
2019-06-26T07:09:21.583Z,67.05
2019-06-26T07:11:49.475Z,69.47
2019-06-26T07:14:18.024Z,66.25
2019-06-26T07:16:45.233Z,72.44
2019-06-26T07:19:12.303Z,71.96
2019-06-26T07:21:39.557Z,71.38
2019-06-26T07:24:06.802Z,72.63
2019-06-26T07:26:34.051Z,70.77
2019-06-26T07:29:01.290Z,72.26
2019-06-26T07:31:29.072Z,70.46
2019-06-26T07:33:56.521Z,72.08
2019-06-26T07:36:24.085Z,72.07
2019-06-26T07:38:51.364Z,73.12
2019-06-26T07:41:18.734Z,71.67
2019-06-26T07:43:46.207Z,78.38
2019-06-26T07:46:13.435Z,67.49
2019-06-26T07:48:40.585Z,65.55
2019-06-26T07:51:08.515Z,67.63
2019-06-26T07:53:37.623Z,67.51
2019-06-26T07:56:06.785Z,66.63
2019-06-26T07:58:34.316Z,66.24
2019-06-26T08:01:01.856Z,69.61
2019-06-26T08:03:33.511Z,69.51
2019-06-26T08:06:00.923Z,65.74
2019-06-26T08:08:28.383Z,67.20
2019-06-26T08:10:55.938Z,69.59
2019-06-26T08:13:23.071Z,69.49
2019-06-26T08:15:50.584Z,65.72
2019-06-26T08:18:17.734Z,68.38
2019-06-26T08:20:55.377Z,71.17
2019-06-26T08:23:14.299Z,71.00
2019-06-26T08:25:41.468Z,65.42
2019-06-26T08:28:08.821Z,67.50
2019-06-26T08:30:36.277Z,70.65
2019-06-26T08:33:03.646Z,72.53
2019-06-26T08:35:30.758Z,72.25
2019-06-26T08:38:09.361Z,73.31
2019-06-26T08:40:27.563Z,74.67
2019-06-26T08:42:55.035Z,72.46
2019-06-26T08:45:22.879Z,72.25
2019-06-26T08:47:50.412Z,73.98
2019-06-26T08:50:18.165Z,69.77
2019-06-26T08:52:45.293Z,71.99
2019-06-26T08:55:12.611Z,69.19
2019-06-26T08:57:39.822Z,70.81
2019-06-26T09:00:09.751Z,72.58
2019-06-26T09:02:37.320Z,70.38
2019-06-26T09:05:05.327Z,79.37
2019-06-26T09:07:32.857Z,77.58
2019-06-26T09:10:00.016Z,72.63
2019-06-26T09:12:27.257Z,77.35
2019-06-26T09:14:54.565Z,72.95
2019-06-26T09:17:21.837Z,74.15
2019-06-26T09:19:48.978Z,68.51
2019-06-26T09:22:16.552Z,72.64
2019-06-26T09:24:44.011Z,78.36
2019-06-26T09:27:14.618Z,71.35
2019-06-26T09:29:40.266Z,70.61
2019-06-26T09:32:07.503Z,72.86
2019-06-26T09:34:34.770Z,71.31
2019-06-26T09:37:02.000Z,73.65
2019-06-26T09:39:29.362Z,71.62
2019-06-26T09:41:56.564Z,73.86
2019-06-26T09:44:23.723Z,60.59
2019-06-26T09:46:51.055Z,70.39
2019-06-26T09:49:18.313Z,69.80
2019-06-26T09:51:45.515Z,73.81
2019-06-26T09:54:12.655Z,74.46
2019-06-26T09:56:39.896Z,61.25
2019-06-26T09:59:07.070Z,58.88
2019-06-26T10:01:34.209Z,58.32
2019-06-26T10:04:01.457Z,62.89
2019-06-26T10:06:28.767Z,53.67
2019-06-26T10:08:56.053Z,62.87
2019-06-26T10:11:23.367Z,64.00
2019-06-26T10:13:50.838Z,69.38
2019-06-26T10:16:18.087Z,54.32
2019-06-26T10:18:45.315Z,49.62
2019-06-26T10:21:12.467Z,59.48
2019-06-26T10:23:39.699Z,64.89
2019-06-26T10:26:07.857Z,69.31
2019-06-26T10:28:34.978Z,62.71
2019-06-26T10:31:02.292Z,69.32
2019-06-26T10:33:29.425Z,68.11
2019-06-26T10:35:56.780Z,55.62
2019-06-26T10:38:24.279Z,61.76
2019-06-26T10:40:51.902Z,59.37
2019-06-26T10:43:19.845Z,64.18
2019-06-26T10:45:47.598Z,69.44
2019-06-26T10:48:16.335Z,59.76
2019-06-26T10:50:51.139Z,66.79
2019-06-26T10:53:12.794Z,55.88
2019-06-26T10:55:40.121Z,72.81
2019-06-26T10:58:07.235Z,61.23
2019-06-26T11:00:34.589Z,42.96
2019-06-26T11:03:02.488Z,56.95
2019-06-26T11:05:30.077Z,67.71
2019-06-26T11:07:57.276Z,69.05
2019-06-26T11:10:24.626Z,63.38
2019-06-26T11:12:54.460Z,71.42
2019-06-26T11:15:22.477Z,68.85
2019-06-26T11:17:49.712Z,71.01
2019-06-26T11:20:17.425Z,66.91
2019-06-26T11:22:44.632Z,70.74
2019-06-26T11:25:12.206Z,66.17
2019-06-26T11:27:39.293Z,63.27
2019-06-26T11:30:09.438Z,56.83
2019-06-26T11:32:37.055Z,68.80
2019-06-26T11:35:06.117Z,60.19
2019-06-26T11:37:33.324Z,71.74
2019-06-26T11:40:00.585Z,71.70
2019-06-26T11:42:27.833Z,65.11
2019-06-26T11:44:55.108Z,50.05
2019-06-26T11:47:22.443Z,61.08
2019-06-26T11:49:59.262Z,67.87
2019-06-26T11:52:19.288Z,69.21
2019-06-26T11:55:01.418Z,70.08
2019-06-26T11:57:15.727Z,65.10
2019-06-26T11:59:43.067Z,69.17
2019-06-26T12:02:10.546Z,54.99
2019-06-26T12:04:37.959Z,70.87
2019-06-26T12:07:05.546Z,58.82
2019-06-26T12:09:33.195Z,61.18
2019-06-26T12:12:00.965Z,65.60
2019-06-26T12:14:33.380Z,38.67
2019-06-26T12:17:00.884Z,61.26
2019-06-26T12:19:27.985Z,63.94
2019-06-26T12:21:55.170Z,70.56
2019-06-26T12:24:22.275Z,67.28
2019-06-26T12:26:49.529Z,58.52
2019-06-26T12:29:16.751Z,40.21
2019-06-26T12:31:44.001Z,57.96
2019-06-26T12:34:11.147Z,61.24
2019-06-26T12:36:38.518Z,54.45
2019-06-26T12:39:06.313Z,63.63
2019-06-26T12:41:33.690Z,46.01
2019-06-26T12:44:00.905Z,38.17
2019-06-26T12:46:28.589Z,56.51
2019-06-26T12:48:56.310Z,37.96
2019-06-26T12:51:23.696Z,47.10
2019-06-26T12:53:51.020Z,38.87
2019-06-26T12:56:19.043Z,59.81
2019-06-26T12:58:46.467Z,56.98
2019-06-26T13:01:14.122Z,54.57
2019-06-26T13:03:41.436Z,68.69
2019-06-26T13:06:08.896Z,44.13
2019-06-26T13:08:36.452Z,55.90
2019-06-26T13:11:03.671Z,58.07
2019-06-26T13:13:31.099Z,34.52
2019-06-26T13:15:58.273Z,43.76
2019-06-26T13:18:27.637Z,57.72
2019-06-26T13:20:54.757Z,32.36
2019-06-26T13:23:22.355Z,38.97
2019-06-26T13:25:49.556Z,32.42
2019-06-26T13:28:17.133Z,37.04
2019-06-26T13:30:44.358Z,31.53
2019-06-26T13:33:11.952Z,30.36
2019-06-26T13:35:39.199Z,30.58
2019-06-26T13:38:06.430Z,30.76
2019-06-26T13:40:33.840Z,52.10
2019-06-26T13:43:00.990Z,59.90
2019-06-26T13:45:28.192Z,41.45
2019-06-26T13:47:55.584Z,38.13
2019-06-26T13:50:22.907Z,32.64
2019-06-26T13:52:50.267Z,39.78
2019-06-26T13:55:18.096Z,33.46
2019-06-26T13:57:45.746Z,31.98
2019-06-26T14:00:13.571Z,56.27
2019-06-26T14:02:41.731Z,40.22
2019-06-26T14:05:09.385Z,41.00
2019-06-26T14:07:36.766Z,32.00
2019-06-26T14:10:08.046Z,34.50
2019-06-26T14:12:35.451Z,32.40
2019-06-26T14:15:04.757Z,32.52
2019-06-26T14:17:32.246Z,33.09
2019-06-26T14:19:59.368Z,31.73
2019-06-26T14:22:26.890Z,32.16
2019-06-26T14:24:54.405Z,35.05
2019-06-26T14:27:21.626Z,50.35
2019-06-26T14:29:48.854Z,31.63
2019-06-26T14:32:16.014Z,38.42
2019-06-26T14:34:43.504Z,32.39
2019-06-26T14:37:10.621Z,31.32
2019-06-26T14:39:40.870Z,59.46
2019-06-26T14:42:07.225Z,31.34
2019-06-26T14:44:34.591Z,35.07
2019-06-26T14:47:02.165Z,32.13
2019-06-26T14:49:29.707Z,31.76
2019-06-26T14:51:56.860Z,32.55
2019-06-26T14:54:23.999Z,32.09
2019-06-26T14:56:51.202Z,31.84
2019-06-26T14:59:20.555Z,31.88
2019-06-26T15:01:47.966Z,32.10
2019-06-26T15:04:15.593Z,32.23
2019-06-26T15:06:42.761Z,31.88
2019-06-26T15:09:09.999Z,31.86
2019-06-26T15:11:37.102Z,36.73
2019-06-26T15:14:04.762Z,40.47
2019-06-26T15:16:31.926Z,31.71
2019-06-26T15:18:59.171Z,31.66
2019-06-26T15:21:28.026Z,31.66
2019-06-26T15:23:55.212Z,54.45
2019-06-26T15:26:22.308Z,32.24
2019-06-26T15:28:49.881Z,32.49
2019-06-26T15:31:17.112Z,32.34
2019-06-26T15:33:44.343Z,32.27
2019-06-26T15:36:11.594Z,32.15
2019-06-26T15:38:38.742Z,32.18
2019-06-26T15:41:06.162Z,32.68
2019-06-26T15:43:33.839Z,30.62
2019-06-26T15:46:01.516Z,28.73
2019-06-26T15:48:28.897Z,27.18
2019-06-26T15:50:56.489Z,26.78
2019-06-26T15:53:23.620Z,26.80
2019-06-26T15:55:50.735Z,26.66
2019-06-26T15:58:18.243Z,26.84
2019-06-26T16:00:45.601Z,27.91
2019-06-26T16:03:12.835Z,32.15
2019-06-26T16:05:42.576Z,36.01
2019-06-26T16:08:09.839Z,33.87
2019-06-26T16:10:37.114Z,39.96
2019-06-26T16:13:04.292Z,37.08
2019-06-26T16:15:31.896Z,38.67
2019-06-26T16:18:04.598Z,41.08
2019-06-26T16:20:32.200Z,52.23
2019-06-26T16:22:59.338Z,39.12
2019-06-26T16:25:27.903Z,47.83
2019-06-26T16:28:04.643Z,49.46
2019-06-26T16:30:24.261Z,54.91
2019-06-26T16:32:51.386Z,54.44
2019-06-26T16:35:18.549Z,44.83
2019-06-26T16:37:45.720Z,40.96
2019-06-26T16:40:13.130Z,41.46
2019-06-26T16:42:40.343Z,47.19
2019-06-26T16:45:07.984Z,42.17
2019-06-26T16:47:35.171Z,50.53
2019-06-26T16:50:04.095Z,43.73
2019-06-26T16:52:47.510Z,48.25
2019-06-26T16:55:00.249Z,55.38
2019-06-26T16:57:29.500Z,49.36
2019-06-26T17:00:08.750Z,52.58
2019-06-26T17:02:25.860Z,49.33
2019-06-26T17:04:53.464Z,44.17
2019-06-26T17:07:20.573Z,44.04
2019-06-26T17:09:47.719Z,46.83
2019-06-26T17:12:15.390Z,48.16
2019-06-26T17:14:42.640Z,54.63
2019-06-26T17:17:09.809Z,43.87
2019-06-26T17:19:36.927Z,56.07
2019-06-26T17:22:04.067Z,40.61
2019-06-26T17:24:31.668Z,46.17
2019-06-26T17:26:59.561Z,48.65
2019-06-26T17:29:26.810Z,51.76
2019-06-26T17:31:54.320Z,46.67
2019-06-26T17:34:21.412Z,55.28
2019-06-26T17:36:48.676Z,56.52
2019-06-26T17:39:15.863Z,56.03
2019-06-26T17:41:44.181Z,47.31
2019-06-26T17:44:11.610Z,43.46
2019-06-26T17:46:39.161Z,50.41
2019-06-26T17:49:06.282Z,49.42
2019-06-26T17:51:33.924Z,51.80
2019-06-26T17:54:01.354Z,48.65
2019-06-26T17:56:28.609Z,48.23
2019-06-26T17:58:55.800Z,49.63
2019-06-26T18:01:23.097Z,53.07
2019-06-26T18:03:50.600Z,56.43
2019-06-26T18:06:17.749Z,46.94
2019-06-26T18:08:47.408Z,46.18
2019-06-26T18:11:14.725Z,55.46
2019-06-26T18:13:41.933Z,48.54
2019-06-26T18:16:09.426Z,52.56
2019-06-26T18:18:36.887Z,50.01
2019-06-26T18:21:04.732Z,55.70
2019-06-26T18:23:37.694Z,49.21
2019-06-26T18:26:12.268Z,50.05
2019-06-26T18:28:30.039Z,50.64
2019-06-26T18:30:57.309Z,51.38
2019-06-26T18:33:24.761Z,52.08
2019-06-26T18:35:52.029Z,52.56
2019-06-26T18:38:19.097Z,52.85
2019-06-26T18:40:46.268Z,53.46
2019-06-26T18:43:15.131Z,53.16
2019-06-26T18:45:42.607Z,54.33
2019-06-26T18:48:09.723Z,54.83
2019-06-26T18:50:36.963Z,55.79
2019-06-26T18:53:04.174Z,56.43
2019-06-26T18:55:31.713Z,56.87
2019-06-26T18:57:58.986Z,57.66
2019-06-26T19:00:26.248Z,57.66
2019-06-26T19:02:53.853Z,57.95
2019-06-26T19:05:20.990Z,58.20
2019-06-26T19:07:48.557Z,58.61
2019-06-26T19:10:16.128Z,58.53
2019-06-26T19:12:43.389Z,58.40
2019-06-26T19:15:11.228Z,58.21
2019-06-26T19:17:41.451Z,58.51
2019-06-26T19:20:09.570Z,59.21
2019-06-26T19:22:36.921Z,60.67
2019-06-26T19:25:08.437Z,61.37
2019-06-26T19:27:35.704Z,60.34
2019-06-26T19:30:06.912Z,60.93
2019-06-26T19:32:37.456Z,60.98
2019-06-26T19:35:20.244Z,61.08
2019-06-26T19:37:33.839Z,60.58
2019-06-26T19:40:01.081Z,61.49
2019-06-26T19:42:29.342Z,61.93
2019-06-26T19:44:56.813Z,63.18
2019-06-26T19:47:25.422Z,63.18
2019-06-26T19:49:52.854Z,62.72
2019-06-26T19:52:20.006Z,63.39
2019-06-26T19:54:49.285Z,62.59
2019-06-26T19:57:17.075Z,63.40
2019-06-26T19:59:44.608Z,62.56
2019-06-26T20:02:11.861Z,62.97
2019-06-26T20:04:39.470Z,63.22
2019-06-26T20:07:08.810Z,63.56
2019-06-26T20:09:35.950Z,64.30
2019-06-26T20:12:03.172Z,63.90
2019-06-26T20:14:30.700Z,64.28
2019-06-26T20:16:57.983Z,64.37
2019-06-26T20:19:25.236Z,64.31
2019-06-26T20:21:55.026Z,64.85
2019-06-26T20:24:22.167Z,64.79
2019-06-26T20:26:49.313Z,65.45
2019-06-26T20:29:16.479Z,65.44
2019-06-26T20:31:43.630Z,65.51
2019-06-26T20:34:10.766Z,65.52
2019-06-26T20:36:37.898Z,66.01
2019-06-26T20:39:05.276Z,65.72
2019-06-26T20:41:32.762Z,65.26
2019-06-26T20:44:00.500Z,65.57
2019-06-26T20:46:27.742Z,65.68
2019-06-26T20:48:54.897Z,65.60
2019-06-26T20:51:22.054Z,65.31
2019-06-26T20:53:49.205Z,64.81
2019-06-26T20:56:16.375Z,64.57
2019-06-26T20:58:43.484Z,64.31
2019-06-26T21:01:10.608Z,65.07
2019-06-26T21:03:37.786Z,65.51
2019-06-26T21:06:05.321Z,65.95
2019-06-26T21:08:32.821Z,66.31
2019-06-26T21:11:00.816Z,66.16
2019-06-26T21:13:28.497Z,66.64
2019-06-26T21:15:55.581Z,66.07
2019-06-26T21:18:22.759Z,66.22
2019-06-26T21:20:49.903Z,66.84
2019-06-26T21:23:18.873Z,67.17
2019-06-26T21:25:46.264Z,66.86
2019-06-26T21:28:13.822Z,66.81
2019-06-26T21:30:40.986Z,66.46
2019-06-26T21:33:08.283Z,67.48
2019-06-26T21:35:35.409Z,67.93
2019-06-26T21:38:02.789Z,68.36
2019-06-26T21:40:29.889Z,68.83
2019-06-26T21:42:57.458Z,68.69
2019-06-26T21:45:24.546Z,68.15
2019-06-26T21:47:51.818Z,68.14
2019-06-26T21:50:19.033Z,67.87
2019-06-26T21:52:46.687Z,67.83
2019-06-26T21:55:14.816Z,68.10
2019-06-26T21:57:42.052Z,68.34
2019-06-26T22:00:10.115Z,68.58
2019-06-26T22:02:37.496Z,69.34
2019-06-26T22:05:05.465Z,68.85
2019-06-26T22:07:33.241Z,69.27
2019-06-26T22:10:00.431Z,69.02
2019-06-26T22:12:27.727Z,69.15
2019-06-26T22:14:54.846Z,69.13
2019-06-26T22:17:22.117Z,68.99
2019-06-26T22:19:49.346Z,68.49
2019-06-26T22:22:16.831Z,68.24
2019-06-26T22:24:44.060Z,68.34
2019-06-26T22:27:13.113Z,68.23
2019-06-26T22:29:40.656Z,68.78
2019-06-26T22:32:07.797Z,69.62
2019-06-26T22:34:35.054Z,70.70
2019-06-26T22:37:02.244Z,70.90
2019-06-26T22:39:29.413Z,70.90
2019-06-26T22:41:56.736Z,70.35
2019-06-26T22:44:23.967Z,70.14
2019-06-26T22:46:51.131Z,69.90
2019-06-26T22:49:18.307Z,69.70
2019-06-26T22:51:45.428Z,69.99
2019-06-26T22:54:12.579Z,70.25
2019-06-26T22:56:39.727Z,70.34
2019-06-26T22:59:06.887Z,69.68
2019-06-26T23:01:33.998Z,68.82
2019-06-26T23:04:03.946Z,68.08
2019-06-26T23:06:31.189Z,68.31
2019-06-26T23:08:58.498Z,69.40
2019-06-26T23:11:25.649Z,69.64
2019-06-26T23:13:52.802Z,70.19
2019-06-26T23:16:19.996Z,70.35
2019-06-26T23:18:47.155Z,70.70
2019-06-26T23:21:14.352Z,70.95
2019-06-26T23:23:41.469Z,70.33
2019-06-26T23:26:23.041Z,70.44
2019-06-26T23:28:37.648Z,69.46
2019-06-26T23:31:07.194Z,69.63
2019-06-26T23:33:34.397Z,70.21
2019-06-26T23:36:01.517Z,70.34
2019-06-26T23:38:28.659Z,70.58
2019-06-26T23:40:55.907Z,70.89
2019-06-26T23:43:23.090Z,70.87
2019-06-26T23:45:50.654Z,71.26
2019-06-26T23:48:18.155Z,71.54
2019-06-26T23:50:45.499Z,71.39
2019-06-26T23:53:12.793Z,71.58
2019-06-26T23:55:40.106Z,72.63
2019-06-26T23:58:07.719Z,72.62
